Time;durP1;ratioP1;P1;durP2;ratioP2;P2;SDS_P1;SDS_P2;PMS_P1;PMS_P2;Temp;Humidity;BMP_temperature;BMP_pressure;BME280_temperature;BME280_humidity;BME280_pressure;Samples;Min_cycle;Max_cycle;Signal;HPM_P1;HPM_P2
2023/11/18 00:01:37;;;;;;;5.03;3.08;;;;;;;;;;4916165;29;20034;-81
2023/11/18 00:04:22;;;;;;;5.90;2.80;;;;;;;;;;4907677;29;21543;-82
2023/11/18 00:07:07;;;;;;;3.90;2.35;;;;;;;;;;4918023;29;20043;-82
2023/11/18 00:09:52;;;;;;;5.10;2.85;;;;;;;;;;4913824;29;20026;-80
2023/11/18 00:12:41;;;;;;;6.20;3.15;;;;;;;;;;4913951;29;20028;-81
2023/11/18 00:15:26;;;;;;;6.15;3.30;;;;;;;;;;4914944;29;20084;-81
2023/11/18 00:18:12;;;;;;;6.20;3.40;;;;;;;;;;4900489;29;20036;-80
2023/11/18 00:20:57;;;;;;;3.88;2.75;;;;;;;;;;4910063;29;20058;-79
2023/11/18 00:23:43;;;;;;;7.00;3.05;;;;;;;;;;4910154;29;20114;-80
2023/11/18 00:26:29;;;;;;;3.78;2.60;;;;;;;;;;4913859;29;20079;-82
2023/11/18 00:29:14;;;;;;;10.27;3.35;;;;;;;;;;4911855;29;20567;-81
2023/11/18 00:32:03;;;;;;;5.55;2.80;;;;;;;;;;4904393;29;20059;-81
2023/11/18 00:34:48;;;;;;;5.15;2.97;;;;;;;;;;4905243;29;20055;-80
2023/11/18 00:37:33;;;;;;;6.03;3.65;;;;;;;;;;4911203;29;20091;-80
2023/11/18 00:40:19;;;;;;;4.78;3.10;;;;;;;;;;4933853;29;20136;-81
2023/11/18 00:43:04;;;;;;;4.68;2.75;;;;;;;;;;4915836;29;20031;-80
2023/11/18 00:45:51;;;;;;;5.70;2.83;;;;;;;;;;4901786;29;20083;-82
2023/11/18 00:48:36;;;;;;;4.57;2.78;;;;;;;;;;4908088;29;20024;-78
2023/11/18 00:51:21;;;;;;;4.70;2.90;;;;;;;;;;4920686;29;20082;-81
2023/11/18 00:54:07;;;;;;;3.70;2.60;;;;;;;;;;4932803;29;20078;-81
2023/11/18 00:56:52;;;;;;;6.65;3.40;;;;;;;;;;4916091;29;20095;-80
2023/11/18 00:59:41;;;;;;;5.75;3.53;;;;;;;;;;4913304;29;20031;-81
2023/11/18 01:02:27;;;;;;;5.13;3.13;;;;;;;;;;4917573;29;20103;-80
2023/11/18 01:05:13;;;;;;;5.15;3.30;;;;;;;;;;4911895;29;20107;-80
2023/11/18 01:07:58;;;;;;;6.35;3.40;;;;;;;;;;4910498;29;20024;-80
2023/11/18 01:10:43;;;;;;;6.88;3.13;;;;;;;;;;4910448;29;20035;-79
2023/11/18 01:13:28;;;;;;;5.18;3.15;;;;;;;;;;4899585;29;20033;-80
2023/11/18 01:16:14;;;;;;;4.82;3.00;;;;;;;;;;4904910;29;20024;-82
2023/11/18 01:19:00;;;;;;;5.82;3.58;;;;;;;;;;4910012;29;20027;-80
2023/11/18 01:21:45;;;;;;;6.70;4.07;;;;;;;;;;4915982;29;20061;-81
2023/11/18 01:24:30;;;;;;;6.30;3.15;;;;;;;;;;4904891;29;20092;-82
2023/11/18 01:27:15;;;;;;;6.93;3.42;;;;;;;;;;4918759;29;20031;-81
2023/11/18 01:30:02;;;;;;;6.38;3.38;;;;;;;;;;4909906;29;20111;-81
2023/11/18 01:32:48;;;;;;;4.03;2.60;;;;;;;;;;4905082;29;20039;-81
2023/11/18 01:35:33;;;;;;;4.47;2.85;;;;;;;;;;4909581;29;20015;-81
2023/11/18 01:38:20;;;;;;;4.50;3.03;;;;;;;;;;4910401;29;20107;-81
2023/11/18 01:41:06;;;;;;;5.10;3.55;;;;;;;;;;4909514;29;20028;-80
2023/11/18 01:43:51;;;;;;;9.27;3.10;;;;;;;;;;4905839;29;20039;-81
2023/11/18 01:46:37;;;;;;;8.73;3.67;;;;;;;;;;4905909;29;20046;-80
2023/11/18 01:49:22;;;;;;;5.35;3.17;;;;;;;;;;4903545;29;20363;-80
2023/11/18 01:52:08;;;;;;;7.03;2.92;;;;;;;;;;4919470;29;20083;-81
2023/11/18 01:54:54;;;;;;;6.55;2.97;;;;;;;;;;4911139;29;20047;-80
2023/11/18 01:57:43;;;;;;;6.85;3.45;;;;;;;;;;4916995;29;20114;-80
2023/11/18 02:00:30;;;;;;;4.88;2.63;;;;;;;;;;4917500;28;20059;-80
2023/11/18 02:03:17;;;;;;;5.00;3.38;;;;;;;;;;4914187;29;20019;-81
2023/11/18 02:06:04;;;;;;;7.40;3.72;;;;;;;;;;4904312;29;20091;-82
2023/11/18 02:08:49;;;;;;;6.20;3.40;;;;;;;;;;4912529;29;20028;-81
2023/11/18 02:11:41;;;;;;;3.75;2.58;;;;;;;;;;4909530;29;20031;-80
2023/11/18 02:14:28;;;;;;;6.03;2.90;;;;;;;;;;4915996;29;20040;-81
2023/11/18 02:17:14;;;;;;;7.63;3.03;;;;;;;;;;4906285;29;20016;-81
2023/11/18 02:20:00;;;;;;;4.53;2.88;;;;;;;;;;4906955;29;20540;-81
2023/11/18 02:22:48;;;;;;;6.60;3.65;;;;;;;;;;4914190;29;20032;-81
2023/11/18 02:25:34;;;;;;;4.97;3.53;;;;;;;;;;4912368;29;20038;-81
2023/11/18 02:28:19;;;;;;;7.03;2.95;;;;;;;;;;4913670;29;20028;-83
2023/11/18 02:31:15;;;;;;;5.32;3.25;;;;;;;;;;4909525;29;20123;-78
2023/11/18 02:34:16;;;;;;;6.63;3.45;;;;;;;;;;4909677;29;20032;-81
2023/11/18 02:37:03;;;;;;;5.13;3.28;;;;;;;;;;4905609;29;20043;-80
2023/11/18 02:39:51;;;;;;;5.75;3.42;;;;;;;;;;4906040;29;20806;-81
2023/11/18 02:42:38;;;;;;;3.58;2.38;;;;;;;;;;4900294;29;20067;-81
2023/11/18 02:45:24;;;;;;;4.72;2.95;;;;;;;;;;4910159;29;20086;-81
2023/11/18 02:48:09;;;;;;;3.50;2.33;;;;;;;;;;4913415;29;20040;-81
2023/11/18 02:50:54;;;;;;;3.53;2.35;;;;;;;;;;4907990;29;20564;-81
2023/11/18 02:53:41;;;;;;;3.40;2.05;;;;;;;;;;4914286;29;20079;-80
2023/11/18 02:56:26;;;;;;;3.33;2.53;;;;;;;;;;4914318;29;20781;-80
2023/11/18 02:59:11;;;;;;;5.07;2.55;;;;;;;;;;4909299;29;20087;-81
2023/11/18 03:01:57;;;;;;;3.08;2.25;;;;;;;;;;4910291;29;20099;-80
2023/11/18 03:04:45;;;;;;;4.65;2.45;;;;;;;;;;4912956;29;20099;-81
2023/11/18 03:07:30;;;;;;;3.80;2.30;;;;;;;;;;4904192;29;20479;-81
2023/11/18 03:10:20;;;;;;;5.10;2.47;;;;;;;;;;4897458;29;20230;-80
2023/11/18 03:13:06;;;;;;;4.45;2.30;;;;;;;;;;4904640;29;20031;-80
2023/11/18 03:15:51;;;;;;;2.60;1.92;;;;;;;;;;4912498;29;20028;-80
2023/11/18 03:18:38;;;;;;;4.93;2.17;;;;;;;;;;4919892;29;20035;-80
2023/11/18 03:21:23;;;;;;;2.63;1.98;;;;;;;;;;4906084;29;20031;-79
2023/11/18 03:24:09;;;;;;;5.78;2.00;;;;;;;;;;4917358;29;20024;-80
2023/11/18 03:26:54;;;;;;;3.83;2.35;;;;;;;;;;4909858;29;20395;-80
2023/11/18 03:29:40;;;;;;;3.45;2.25;;;;;;;;;;4910245;29;20042;-81
2023/11/18 03:32:25;;;;;;;2.75;1.90;;;;;;;;;;4932508;29;20035;-79
2023/11/18 03:35:11;;;;;;;2.92;1.83;;;;;;;;;;4913626;29;20027;-79
2023/11/18 03:37:56;;;;;;;4.47;2.38;;;;;;;;;;4908600;29;20028;-80
2023/11/18 03:40:41;;;;;;;4.20;2.47;;;;;;;;;;4915495;29;20083;-80
2023/11/18 03:43:27;;;;;;;5.28;2.40;;;;;;;;;;4920724;29;20032;-82
2023/11/18 03:46:38;;;;;;;3.95;2.60;;;;;;;;;;4906014;29;20283;-82
2023/11/18 03:49:22;;;;;;;5.43;2.63;;;;;;;;;;4875474;29;20046;-80
2023/11/18 03:52:08;;;;;;;4.07;2.65;;;;;;;;;;4909867;29;20103;-80
2023/11/18 03:54:55;;;;;;;5.00;2.20;;;;;;;;;;4904893;29;20111;-81
2023/11/18 03:57:40;;;;;;;6.05;3.60;;;;;;;;;;4906424;29;20518;-81
2023/11/18 04:00:29;;;;;;;6.65;2.40;;;;;;;;;;4910380;29;20043;-81
2023/11/18 04:03:15;;;;;;;5.83;2.90;;;;;;;;;;4908227;29;20123;-82
2023/11/18 04:06:00;;;;;;;4.97;2.35;;;;;;;;;;4904619;29;20438;-80
2023/11/18 04:08:45;;;;;;;4.85;2.75;;;;;;;;;;4911544;29;20088;-80
2023/11/18 04:11:31;;;;;;;4.30;3.15;;;;;;;;;;4915492;29;20025;-80
2023/11/18 04:14:16;;;;;;;4.93;3.10;;;;;;;;;;4917318;29;20074;-81
2023/11/18 04:17:01;;;;;;;5.32;3.08;;;;;;;;;;4909860;29;20031;-80
2023/11/18 04:19:47;;;;;;;5.90;2.80;;;;;;;;;;4904337;29;20115;-81
2023/11/18 04:22:32;;;;;;;2.92;2.28;;;;;;;;;;4907984;29;20063;-80
2023/11/18 04:25:17;;;;;;;5.60;2.38;;;;;;;;;;4888852;29;20063;-80
2023/11/18 04:28:04;;;;;;;4.07;2.30;;;;;;;;;;4918817;29;20589;-80
2023/11/18 04:30:49;;;;;;;3.40;2.67;;;;;;;;;;4906306;29;20821;-79
2023/11/18 04:33:34;;;;;;;5.65;3.45;;;;;;;;;;4907635;29;20032;-79
2023/11/18 04:36:21;;;;;;;8.70;3.75;;;;;;;;;;4915792;29;20038;-79
2023/11/18 04:39:07;;;;;;;4.53;2.50;;;;;;;;;;4914286;29;20020;-80
2023/11/18 04:41:52;;;;;;;6.43;3.30;;;;;;;;;;4912002;29;20028;-79
2023/11/18 04:44:38;;;;;;;4.40;2.70;;;;;;;;;;4924063;29;20091;-80
2023/11/18 04:47:25;;;;;;;7.60;2.60;;;;;;;;;;4917832;29;20046;-80
2023/11/18 04:50:10;;;;;;;4.28;2.78;;;;;;;;;;4900746;29;20886;-80
2023/11/18 04:52:56;;;;;;;3.90;2.28;;;;;;;;;;4906533;29;20167;-80
2023/11/18 04:55:41;;;;;;;3.08;2.22;;;;;;;;;;4911459;29;20021;-80
2023/11/18 04:58:26;;;;;;;5.07;2.70;;;;;;;;;;4906490;29;20483;-82
2023/11/18 05:01:12;;;;;;;5.38;2.38;;;;;;;;;;4928646;29;20483;-81
2023/11/18 05:03:59;;;;;;;5.38;3.17;;;;;;;;;;4910199;29;20111;-81
2023/11/18 05:06:44;;;;;;;4.10;2.55;;;;;;;;;;4911448;29;20082;-80
2023/11/18 05:09:29;;;;;;;3.53;2.15;;;;;;;;;;4925977;29;20103;-81
2023/11/18 05:12:15;;;;;;;4.35;2.75;;;;;;;;;;4919130;29;20027;-81
2023/11/18 05:15:00;;;;;;;4.15;2.55;;;;;;;;;;4916891;29;20027;-81
2023/11/18 05:17:45;;;;;;;4.00;2.33;;;;;;;;;;4910380;29;20056;-81
2023/11/18 05:20:31;;;;;;;4.00;2.30;;;;;;;;;;4912971;29;20078;-80
2023/11/18 05:23:16;;;;;;;3.40;2.67;;;;;;;;;;4919683;29;20035;-80
2023/11/18 05:26:05;;;;;;;6.07;2.90;;;;;;;;;;4911967;29;20024;-80
2023/11/18 05:28:50;;;;;;;5.53;2.88;;;;;;;;;;4909984;29;20075;-80
2023/11/18 05:31:37;;;;;;;4.43;2.70;;;;;;;;;;4913164;29;20032;-80
2023/11/18 05:34:22;;;;;;;4.38;2.47;;;;;;;;;;4935328;29;20046;-81
2023/11/18 05:37:07;;;;;;;4.63;2.90;;;;;;;;;;4911772;29;20182;-81
2023/11/18 05:39:59;;;;;;;3.67;2.47;;;;;;;;;;4908260;29;20023;-80
2023/11/18 05:42:46;;;;;;;4.38;2.65;;;;;;;;;;4906235;29;20110;-80
2023/11/18 05:45:55;;;;;;;3.55;2.47;;;;;;;;;;4903377;29;20025;-79
2023/11/18 05:48:36;;;;;;;3.72;2.65;;;;;;;;;;4902724;29;20043;-79
2023/11/18 05:51:23;;;;;;;9.05;3.10;;;;;;;;;;4911676;29;20056;-79
2023/11/18 05:54:08;;;;;;;2.65;2.20;;;;;;;;;;4906856;29;20032;-79
2023/11/18 05:56:54;;;;;;;4.57;2.55;;;;;;;;;;4914445;29;20114;-78
2023/11/18 05:59:39;;;;;;;4.45;2.88;;;;;;;;;;4907096;29;20023;-79
2023/11/18 06:02:24;;;;;;;4.70;3.00;;;;;;;;;;4912863;29;20028;-79
2023/11/18 06:05:12;;;;;;;4.22;2.72;;;;;;;;;;4907011;29;20557;-80
2023/11/18 06:07:59;;;;;;;6.50;3.40;;;;;;;;;;4903707;29;20817;-80
2023/11/18 06:10:48;;;;;;;5.40;2.20;;;;;;;;;;4905693;29;20038;-80
2023/11/18 06:13:36;;;;;;;3.80;2.47;;;;;;;;;;4900759;29;20036;-81
2023/11/18 06:16:22;;;;;;;4.85;2.92;;;;;;;;;;4904117;29;20152;-80
2023/11/18 06:19:07;;;;;;;4.65;3.20;;;;;;;;;;4899362;29;20024;-81
2023/11/18 06:21:53;;;;;;;4.53;2.50;;;;;;;;;;4895813;29;20751;-80
2023/11/18 06:24:41;;;;;;;3.70;2.47;;;;;;;;;;4908300;29;20426;-79
2023/11/18 06:27:27;;;;;;;4.20;2.45;;;;;;;;;;4915381;29;20063;-80
2023/11/18 06:30:12;;;;;;;5.00;2.85;;;;;;;;;;4897280;29;20096;-81
2023/11/18 06:32:57;;;;;;;5.28;2.20;;;;;;;;;;4903438;29;20080;-81
2023/11/18 06:35:44;;;;;;;8.07;2.63;;;;;;;;;;4905716;29;20099;-81
2023/11/18 06:38:30;;;;;;;6.25;2.83;;;;;;;;;;4911073;29;20032;-81
2023/11/18 06:41:16;;;;;;;5.25;2.88;;;;;;;;;;4906831;29;20432;-81
2023/11/18 06:44:09;;;;;;;4.13;2.70;;;;;;;;;;4911828;29;20066;-81
2023/11/18 06:46:54;;;;;;;4.05;2.80;;;;;;;;;;4900167;29;20027;-81
2023/11/18 06:49:41;;;;;;;5.10;2.50;;;;;;;;;;4911148;29;20789;-80
2023/11/18 06:52:26;;;;;;;4.53;2.88;;;;;;;;;;4906361;29;20036;-81
2023/11/18 06:55:13;;;;;;;4.88;3.20;;;;;;;;;;4906884;29;20603;-80
2023/11/18 06:57:58;;;;;;;10.50;3.38;;;;;;;;;;4892389;29;20032;-81
2023/11/18 07:00:43;;;;;;;4.80;3.15;;;;;;;;;;4900099;29;20056;-80
2023/11/18 07:03:29;;;;;;;5.68;3.00;;;;;;;;;;4900101;29;20084;-79
2023/11/18 07:06:21;;;;;;;5.72;3.03;;;;;;;;;;4905925;29;20080;-79
2023/11/18 07:09:17;;;;;;;6.75;2.70;;;;;;;;;;4910378;29;20071;-80
2023/11/18 07:12:03;;;;;;;4.85;3.25;;;;;;;;;;4903775;29;20087;-80
2023/11/18 07:14:48;;;;;;;6.15;3.38;;;;;;;;;;4911493;29;20032;-80
2023/11/18 07:17:34;;;;;;;10.02;3.22;;;;;;;;;;4919770;29;20617;-80
2023/11/18 07:20:20;;;;;;;5.95;3.33;;;;;;;;;;4907665;29;20357;-79
2023/11/18 07:23:08;;;;;;;5.60;2.95;;;;;;;;;;4907576;29;20547;-81
2023/11/18 07:25:53;;;;;;;9.35;3.13;;;;;;;;;;4899709;29;20497;-81
2023/11/18 07:28:39;;;;;;;4.28;2.55;;;;;;;;;;4895171;29;20620;-81
2023/11/18 07:31:24;;;;;;;8.20;3.78;;;;;;;;;;4899949;29;20031;-81
2023/11/18 07:34:10;;;;;;;15.70;4.00;;;;;;;;;;4902733;29;20092;-81
2023/11/18 07:36:55;;;;;;;5.97;4.30;;;;;;;;;;4904297;29;20087;-80
2023/11/18 07:39:43;;;;;;;7.90;3.53;;;;;;;;;;4904129;29;20032;-81
2023/11/18 07:42:30;;;;;;;5.25;2.92;;;;;;;;;;4897448;29;20129;-79
2023/11/18 07:45:18;;;;;;;6.65;3.75;;;;;;;;;;4904354;29;20008;-80
2023/11/18 07:48:06;;;;;;;5.95;2.95;;;;;;;;;;4898210;29;20027;-82
2023/11/18 07:50:51;;;;;;;7.45;3.65;;;;;;;;;;4898073;29;20043;-82
2023/11/18 07:53:38;;;;;;;6.95;4.60;;;;;;;;;;4894277;29;20024;-82
2023/11/18 07:56:23;;;;;;;8.30;3.47;;;;;;;;;;4898086;29;20050;-82
2023/11/18 07:59:08;;;;;;;6.95;3.85;;;;;;;;;;4900291;29;20032;-82
2023/11/18 08:01:54;;;;;;;7.93;4.85;;;;;;;;;;4896937;29;20029;-83
2023/11/18 08:04:39;;;;;;;10.05;4.97;;;;;;;;;;4897628;29;20605;-82
2023/11/18 08:07:24;;;;;;;8.90;4.45;;;;;;;;;;4894768;29;20522;-82
2023/11/18 08:10:13;;;;;;;7.65;4.35;;;;;;;;;;4895307;29;20040;-80
2023/11/18 08:12:58;;;;;;;8.07;4.82;;;;;;;;;;4898746;29;20059;-81
2023/11/18 08:15:46;;;;;;;6.60;4.05;;;;;;;;;;4902900;29;20039;-82
2023/11/18 08:18:32;;;;;;;7.28;3.90;;;;;;;;;;4900089;29;20342;-81
2023/11/18 08:21:17;;;;;;;6.80;4.10;;;;;;;;;;4905220;29;20028;-80
2023/11/18 08:24:04;;;;;;;7.50;4.10;;;;;;;;;;4899819;29;20050;-80
2023/11/18 08:26:49;;;;;;;6.15;4.50;;;;;;;;;;4901325;29;20115;-81
2023/11/18 08:29:34;;;;;;;10.88;4.82;;;;;;;;;;4899167;29;20047;-80
2023/11/18 08:32:19;;;;;;;6.93;3.97;;;;;;;;;;4898527;29;20032;-79
2023/11/18 08:35:07;;;;;;;8.65;4.32;;;;;;;;;;4897653;29;20048;-80
2023/11/18 08:37:52;;;;;;;6.43;3.63;;;;;;;;;;4899114;29;20115;-82
2023/11/18 08:40:38;;;;;;;7.75;3.72;;;;;;;;;;4903807;29;20040;-86
2023/11/18 08:43:23;;;;;;;6.55;3.33;;;;;;;;;;4898023;29;20040;-85
2023/11/18 08:46:08;;;;;;;6.88;3.17;;;;;;;;;;4901778;29;20032;-81
2023/11/18 08:48:55;;;;;;;5.43;3.20;;;;;;;;;;4897167;29;20103;-82
2023/11/18 08:51:41;;;;;;;5.57;2.58;;;;;;;;;;4897989;29;20048;-83
2023/11/18 08:54:36;;;;;;;7.28;3.30;;;;;;;;;;4898581;29;20423;-85
2023/11/18 08:57:25;;;;;;;5.47;2.70;;;;;;;;;;4905383;29;20039;-83
2023/11/18 09:00:42;;;;;;;6.28;2.15;;;;;;;;;;4901689;29;20114;-83
2023/11/18 09:03:27;;;;;;;3.90;2.50;;;;;;;;;;4905487;29;20032;-81
2023/11/18 09:06:18;;;;;;;3.50;2.53;;;;;;;;;;4899103;29;20366;-84
2023/11/18 09:09:09;;;;;;;5.60;2.30;;;;;;;;;;4897742;29;20044;-82
2023/11/18 09:11:58;;;;;;;4.88;2.65;;;;;;;;;;4903439;29;20028;-83
2023/11/18 09:14:46;;;;;;;3.78;2.13;;;;;;;;;;4905618;29;20064;-83
2023/11/18 09:17:31;;;;;;;6.28;2.30;;;;;;;;;;4905978;29;20629;-82
2023/11/18 09:20:20;;;;;;;7.60;2.33;;;;;;;;;;4901916;29;20111;-81
2023/11/18 09:23:06;;;;;;;4.38;2.50;;;;;;;;;;4912588;29;20031;-80
2023/11/18 09:25:53;;;;;;;3.03;1.88;;;;;;;;;;4903281;29;20043;-82
2023/11/18 09:28:38;;;;;;;5.78;2.00;;;;;;;;;;4907458;29;20048;-80
2023/11/18 09:31:23;;;;;;;4.20;2.15;;;;;;;;;;4904117;29;20047;-83
2023/11/18 09:34:15;;;;;;;6.65;3.63;;;;;;;;;;4904986;29;20023;-82
2023/11/18 09:37:09;;;;;;;2.95;1.90;;;;;;;;;;4911111;29;20522;-80
2023/11/18 09:39:58;;;;;;;12.15;2.53;;;;;;;;;;4905291;29;20047;-81
2023/11/18 09:42:44;;;;;;;4.25;2.05;;;;;;;;;;4906771;29;20024;-81
2023/11/18 09:45:29;;;;;;;2.90;1.58;;;;;;;;;;4916426;29;20024;-80
2023/11/18 09:48:25;;;;;;;3.47;1.70;;;;;;;;;;4915877;29;20028;-83
2023/11/18 09:51:23;;;;;;;3.75;1.55;;;;;;;;;;4898450;29;20052;-84
2023/11/18 09:54:16;;;;;;;5.88;1.63;;;;;;;;;;4906483;29;20055;-81
2023/11/18 09:57:13;;;;;;;4.25;1.58;;;;;;;;;;4916992;29;21699;-85
2023/11/18 10:00:20;;;;;;;2.92;1.50;;;;;;;;;;4896544;29;20060;-81
2023/11/18 10:03:08;;;;;;;3.78;1.83;;;;;;;;;;4902350;29;20040;-80
2023/11/18 10:05:54;;;;;;;4.25;2.17;;;;;;;;;;4905540;29;20038;-81
2023/11/18 10:08:40;;;;;;;1.90;1.40;;;;;;;;;;4906088;29;20087;-82
2023/11/18 10:11:26;;;;;;;1.85;1.50;;;;;;;;;;4911604;29;20040;-84
2023/11/18 10:14:15;;;;;;;7.32;2.50;;;;;;;;;;4900493;29;20047;-79
2023/11/18 10:17:06;;;;;;;2.28;1.20;;;;;;;;;;4913514;29;20127;-83
2023/11/18 10:19:52;;;;;;;2.22;1.30;;;;;;;;;;4901811;29;20342;-82
2023/11/18 10:22:37;;;;;;;3.97;1.60;;;;;;;;;;4913747;29;20032;-81
2023/11/18 10:25:26;;;;;;;2.50;1.35;;;;;;;;;;4913063;29;20024;-80
2023/11/18 10:28:41;;;;;;;4.40;1.58;;;;;;;;;;4904847;29;20036;-81
2023/11/18 10:31:26;;;;;;;3.65;1.67;;;;;;;;;;4905938;29;20130;-80
2023/11/18 10:34:15;;;;;;;4.75;1.60;;;;;;;;;;4904563;29;20434;-82
2023/11/18 10:37:06;;;;;;;4.47;1.98;;;;;;;;;;4904830;29;20036;-82
2023/11/18 10:39:51;;;;;;;3.45;1.52;;;;;;;;;;4902284;29;20487;-83
2023/11/18 10:42:36;;;;;;;2.95;1.75;;;;;;;;;;4908980;29;20584;-81
2023/11/18 10:45:27;;;;;;;4.35;2.03;;;;;;;;;;4904299;29;20059;-81
2023/11/18 10:48:16;;;;;;;4.18;1.90;;;;;;;;;;4900503;29;20047;-80
2023/11/18 10:51:01;;;;;;;2.35;1.35;;;;;;;;;;4910276;29;20106;-81
2023/11/18 10:53:53;;;;;;;3.08;1.30;;;;;;;;;;4904013;29;20040;-82
2023/11/18 10:56:45;;;;;;;2.40;1.52;;;;;;;;;;4905473;29;20028;-82
2023/11/18 10:59:31;;;;;;;4.03;1.70;;;;;;;;;;4905363;29;20039;-82
2023/11/18 11:02:23;;;;;;;3.60;1.58;;;;;;;;;;4907327;29;20630;-82
2023/11/18 11:05:15;;;;;;;5.93;1.65;;;;;;;;;;4903768;29;20028;-82
2023/11/18 11:08:02;;;;;;;4.45;1.73;;;;;;;;;;4903942;29;20090;-82
2023/11/18 11:10:49;;;;;;;2.50;1.85;;;;;;;;;;4904056;29;20110;-84
2023/11/18 11:13:37;;;;;;;4.40;1.55;;;;;;;;;;4901792;29;20060;-84
2023/11/18 11:16:25;;;;;;;2.25;1.40;;;;;;;;;;4902256;29;20107;-82
2023/11/18 11:19:26;;;;;;;3.55;1.88;;;;;;;;;;4899729;29;20134;-83
2023/11/18 11:22:15;;;;;;;2.78;1.60;;;;;;;;;;4904252;29;20615;-81
2023/11/18 11:25:00;;;;;;;;;;;;;;;;;;4900663;29;20028;-81
2023/11/18 11:27:51;;;;;;;4.20;1.88;;;;;;;;;;4915579;29;19982;-83
2023/11/18 11:30:44;;;;;;;4.80;1.73;;;;;;;;;;4903227;29;20024;-82
2023/11/18 11:33:40;;;;;;;3.45;1.38;;;;;;;;;;4905072;29;20104;-81
2023/11/18 11:36:31;;;;;;;3.72;1.55;;;;;;;;;;4905324;29;20024;-82
2023/11/18 11:39:25;;;;;;;1.75;1.27;;;;;;;;;;4902101;29;20039;-80
2023/11/18 11:42:12;;;;;;;3.63;1.73;;;;;;;;;;4904573;29;20490;-81
2023/11/18 11:44:58;;;;;;;2.65;1.65;;;;;;;;;;4903334;29;20394;-81
2023/11/18 11:47:46;;;;;;;2.38;1.40;;;;;;;;;;4900525;29;20031;-81
2023/11/18 11:50:32;;;;;;;5.13;1.63;;;;;;;;;;4904159;29;20688;-82
2023/11/18 11:53:26;;;;;;;3.38;1.30;;;;;;;;;;4904883;29;20474;-80
2023/11/18 11:56:14;;;;;;;3.22;1.27;;;;;;;;;;4903588;29;20280;-81
2023/11/18 11:58:59;;;;;;;3.67;1.38;;;;;;;;;;4916830;29;20032;-80
2023/11/18 12:01:51;;;;;;;3.47;1.42;;;;;;;;;;4882520;29;20071;-82
2023/11/18 12:04:41;;;;;;;2.85;1.30;;;;;;;;;;4893790;29;20119;-81
2023/11/18 12:07:27;;;;;;;4.68;2.10;;;;;;;;;;4887499;29;20036;-82
2023/11/18 12:10:20;;;;;;;3.95;1.60;;;;;;;;;;4896522;29;20036;-82
2023/11/18 12:13:19;;;;;;;5.28;2.13;;;;;;;;;;4901180;29;20306;-79
2023/11/18 12:16:10;;;;;;;3.13;1.40;;;;;;;;;;4902629;29;20064;-80
2023/11/18 12:19:14;;;;;;;2.58;1.45;;;;;;;;;;4912012;29;20534;-81
2023/11/18 12:22:00;;;;;;;2.70;1.48;;;;;;;;;;4903038;29;20028;-82
2023/11/18 12:25:06;;;;;;;3.33;1.90;;;;;;;;;;4890738;29;20777;-82
2023/11/18 12:27:58;;;;;;;4.47;1.23;;;;;;;;;;4899991;29;20036;-83
2023/11/18 12:30:55;;;;;;;5.55;1.85;;;;;;;;;;4913871;29;20524;-86
2023/11/18 12:33:50;;;;;;;4.22;1.50;;;;;;;;;;4902751;29;20494;-88
2023/11/18 12:36:50;;;;;;;7.53;1.83;;;;;;;;;;4898997;29;20028;-91
2023/11/18 12:39:50;;;;;;;5.60;1.98;;;;;;;;;;4911532;29;20110;-83
2023/11/18 12:42:58;;;;;;;3.97;1.83;;;;;;;;;;4907142;29;20028;-85
2023/11/18 12:45:50;;;;;;;3.97;1.60;;;;;;;;;;4928705;28;20035;-86
2023/11/18 12:48:39;;;;;;;4.28;1.90;;;;;;;;;;4920287;29;20032;-92
2023/11/18 12:51:25;;;;;;;5.22;2.17;;;;;;;;;;4923931;29;20079;-85
2023/11/18 12:54:11;;;;;;;3.17;1.80;;;;;;;;;;4910079;29;20032;-87
2023/11/18 12:56:57;;;;;;;4.45;1.85;;;;;;;;;;4914625;29;20044;-83
2023/11/18 12:59:43;;;;;;;3.72;1.88;;;;;;;;;;4907203;29;20022;-83
2023/11/18 13:02:31;;;;;;;5.22;1.90;;;;;;;;;;4908743;29;20074;-83
2023/11/18 13:05:17;;;;;;;4.85;1.90;;;;;;;;;;4907614;29;20139;-84
2023/11/18 13:08:02;;;;;;;4.50;1.75;;;;;;;;;;4899978;29;20042;-83
2023/11/18 13:10:48;;;;;;;5.68;1.58;;;;;;;;;;4898764;29;20026;-82
2023/11/18 13:13:36;;;;;;;3.78;1.60;;;;;;;;;;4893655;29;20415;-82
2023/11/18 13:16:22;;;;;;;2.50;1.50;;;;;;;;;;4908749;29;20397;-82
2023/11/18 13:19:10;;;;;;;2.83;1.50;;;;;;;;;;4893791;29;20119;-81
2023/11/18 13:21:59;;;;;;;4.10;1.60;;;;;;;;;;4906036;29;20536;-82
2023/11/18 13:24:49;;;;;;;4.13;1.97;;;;;;;;;;4905050;29;20330;-83
2023/11/18 13:27:35;;;;;;;3.30;2.08;;;;;;;;;;4896182;29;20029;-81
2023/11/18 13:30:21;;;;;;;3.78;1.95;;;;;;;;;;4907439;29;20032;-82
2023/11/18 13:33:07;;;;;;;4.95;2.10;;;;;;;;;;4907963;29;20170;-82
2023/11/18 13:35:53;;;;;;;6.65;2.00;;;;;;;;;;4924099;29;20035;-83
2023/11/18 13:38:38;;;;;;;5.60;1.88;;;;;;;;;;4913260;29;20472;-84
2023/11/18 13:41:31;;;;;;;3.42;1.77;;;;;;;;;;4906463;29;20025;-85
2023/11/18 13:44:34;;;;;;;5.82;1.83;;;;;;;;;;4905675;29;20056;-85
2023/11/18 13:47:22;;;;;;;3.97;2.05;;;;;;;;;;4906244;29;20519;-83
2023/11/18 13:50:08;;;;;;;4.65;1.98;;;;;;;;;;4906963;29;20058;-82
2023/11/18 13:52:53;;;;;;;3.95;1.85;;;;;;;;;;4902073;29;20480;-81
2023/11/18 13:55:39;;;;;;;3.00;1.80;;;;;;;;;;4900977;29;20040;-82
2023/11/18 13:58:25;;;;;;;6.78;2.72;;;;;;;;;;4903707;29;20060;-83
2023/11/18 14:01:12;;;;;;;4.97;2.70;;;;;;;;;;4906816;29;20056;-85
2023/11/18 14:04:01;;;;;;;7.28;2.92;;;;;;;;;;4905541;29;20042;-80
2023/11/18 14:06:52;;;;;;;4.07;2.15;;;;;;;;;;4913379;29;20372;-82
2023/11/18 14:09:40;;;;;;;6.68;2.45;;;;;;;;;;4911059;29;20509;-83
2023/11/18 14:12:27;;;;;;;10.05;2.30;;;;;;;;;;4907297;29;20081;-84
2023/11/18 14:15:15;;;;;;;5.47;2.10;;;;;;;;;;4892397;29;20048;-81
2023/11/18 14:18:02;;;;;;;5.75;2.35;;;;;;;;;;4903032;29;20035;-83
2023/11/18 14:20:47;;;;;;;4.53;2.60;;;;;;;;;;4890172;29;20047;-84
2023/11/18 14:23:32;;;;;;;3.50;2.25;;;;;;;;;;4903164;29;20020;-83
2023/11/18 14:26:17;;;;;;;4.63;2.55;;;;;;;;;;4902675;29;20115;-83
2023/11/18 14:29:05;;;;;;;4.63;2.65;;;;;;;;;;4891926;29;20412;-83
2023/11/18 14:31:50;;;;;;;4.55;2.47;;;;;;;;;;4900408;29;20203;-83
2023/11/18 14:34:35;;;;;;;5.32;2.53;;;;;;;;;;4904005;29;20091;-85
2023/11/18 14:37:20;;;;;;;5.13;2.67;;;;;;;;;;4909005;29;20059;-85
2023/11/18 14:40:08;;;;;;;6.13;2.40;;;;;;;;;;4910741;29;20669;-82
2023/11/18 14:42:53;;;;;;;3.00;2.08;;;;;;;;;;4916977;29;20151;-82
2023/11/18 14:45:39;;;;;;;4.53;2.15;;;;;;;;;;4918790;29;20067;-83
2023/11/18 14:48:24;;;;;;;6.25;2.90;;;;;;;;;;4902975;29;20438;-84
2023/11/18 14:51:10;;;;;;;5.07;2.53;;;;;;;;;;4910719;29;20503;-83
2023/11/18 14:53:55;;;;;;;5.00;2.35;;;;;;;;;;4898023;29;20036;-83
2023/11/18 14:56:40;;;;;;;3.88;2.10;;;;;;;;;;4901600;29;20036;-84
2023/11/18 14:59:27;;;;;;;5.35;2.60;;;;;;;;;;4904965;29;20032;-86
2023/11/18 15:02:12;;;;;;;3.67;2.50;;;;;;;;;;4905075;29;20030;-83
2023/11/18 15:04:57;;;;;;;4.88;2.83;;;;;;;;;;4901973;29;20099;-81
2023/11/18 15:07:42;;;;;;;6.63;2.35;;;;;;;;;;4903484;29;20105;-81
2023/11/18 15:10:28;;;;;;;4.40;2.17;;;;;;;;;;4907434;29;20114;-81
2023/11/18 15:13:15;;;;;;;5.80;2.63;;;;;;;;;;4911343;29;20036;-80
2023/11/18 15:16:00;;;;;;;6.10;2.70;;;;;;;;;;4907257;29;20091;-82
2023/11/18 15:18:47;;;;;;;5.72;2.70;;;;;;;;;;4916374;29;20027;-82
2023/11/18 15:21:32;;;;;;;4.28;1.98;;;;;;;;;;4914445;29;20031;-80
2023/11/18 15:24:17;;;;;;;8.77;2.45;;;;;;;;;;4919906;29;20055;-80
2023/11/18 15:27:03;;;;;;;10.50;4.53;;;;;;;;;;4907900;29;20032;-79
2023/11/18 15:29:49;;;;;;;5.30;2.40;;;;;;;;;;4915765;29;20042;-81
2023/11/18 15:32:34;;;;;;;4.45;2.13;;;;;;;;;;4904647;29;20032;-80
2023/11/18 15:35:21;;;;;;;4.03;2.20;;;;;;;;;;4899397;29;20075;-79
2023/11/18 15:38:08;;;;;;;6.13;2.40;;;;;;;;;;4904230;29;21291;-81
2023/11/18 15:40:54;;;;;;;7.65;3.33;;;;;;;;;;4902991;29;20115;-80
2023/11/18 15:43:40;;;;;;;5.10;2.70;;;;;;;;;;4899580;29;20028;-82
2023/11/18 15:46:25;;;;;;;6.32;2.58;;;;;;;;;;4901814;29;20071;-82
2023/11/18 15:49:11;;;;;;;9.57;2.47;;;;;;;;;;4899289;29;20032;-82
2023/11/18 15:51:56;;;;;;;5.75;2.83;;;;;;;;;;4899339;29;20032;-83
2023/11/18 15:54:43;;;;;;;7.50;3.00;;;;;;;;;;4895450;29;20034;-83
2023/11/18 15:57:29;;;;;;;7.13;2.28;;;;;;;;;;4904846;29;20038;-81
2023/11/18 16:00:20;;;;;;;5.57;3.08;;;;;;;;;;4898110;29;20028;-79
2023/11/18 16:03:08;;;;;;;4.30;2.50;;;;;;;;;;4901969;29;20032;-79
2023/11/18 16:05:54;;;;;;;8.02;2.10;;;;;;;;;;4901071;29;20077;-79
2023/11/18 16:08:40;;;;;;;8.77;3.25;;;;;;;;;;4904985;29;20047;-83
2023/11/18 16:11:26;;;;;;;8.25;3.13;;;;;;;;;;4899625;29;20032;-84
2023/11/18 16:14:11;;;;;;;4.85;2.88;;;;;;;;;;4891667;29;20033;-81
2023/11/18 16:16:57;;;;;;;4.40;2.20;;;;;;;;;;4895274;29;20066;-84
2023/11/18 16:19:43;;;;;;;4.80;3.03;;;;;;;;;;4902220;29;20043;-81
2023/11/18 16:22:28;;;;;;;5.30;2.72;;;;;;;;;;4909190;29;20107;-81
2023/11/18 16:25:17;;;;;;;6.97;2.45;;;;;;;;;;4903573;29;20020;-81
2023/11/18 16:28:03;;;;;;;4.38;2.83;;;;;;;;;;4905709;29;20507;-80
2023/11/18 16:30:50;;;;;;;6.68;2.90;;;;;;;;;;4906684;29;20028;-82
2023/11/18 16:33:35;;;;;;;9.18;3.45;;;;;;;;;;4901782;29;20063;-83
2023/11/18 16:36:22;;;;;;;5.65;3.40;;;;;;;;;;4903375;29;20032;-83
2023/11/18 16:39:07;;;;;;;5.15;2.80;;;;;;;;;;4906382;29;20035;-83
2023/11/18 16:41:53;;;;;;;9.70;3.65;;;;;;;;;;4922754;29;20054;-83
2023/11/18 16:44:38;;;;;;;5.57;3.00;;;;;;;;;;4908625;29;20067;-84